createdAt,value
2022-08-29T00:01:40.449Z,16.04
2022-08-29T00:04:08.602Z,16.02
2022-08-29T00:06:37.273Z,16.04
2022-08-29T00:09:05.773Z,16.04
2022-08-29T00:11:35.316Z,16.06
2022-08-29T00:14:07.722Z,16.08
2022-08-29T00:16:49.036Z,16.06
2022-08-29T00:19:17.324Z,16.09
2022-08-29T00:21:45.502Z,16.09
2022-08-29T00:24:13.581Z,16.17
2022-08-29T00:26:43.019Z,16.18
2022-08-29T00:29:11.070Z,16.16
2022-08-29T00:31:39.306Z,16.17
2022-08-29T00:34:07.308Z,16.14
2022-08-29T00:36:36.120Z,16.13
2022-08-29T00:39:04.965Z,16.14
2022-08-29T00:41:37.356Z,16.13
2022-08-29T00:44:07.189Z,16.03
2022-08-29T00:46:48.384Z,16.15
2022-08-29T00:49:27.341Z,16.21
2022-08-29T00:51:57.613Z,16.21
2022-08-29T00:54:26.796Z,16.18
2022-08-29T00:56:56.046Z,16.20
2022-08-29T00:59:31.626Z,16.18
2022-08-29T01:02:00.159Z,16.19
2022-08-29T01:04:28.421Z,16.24
2022-08-29T01:06:56.917Z,16.19
2022-08-29T01:09:26.206Z,16.19
2022-08-29T01:12:12.628Z,16.17
2022-08-29T01:14:46.828Z,16.07
2022-08-29T01:17:19.342Z,16.18
2022-08-29T01:19:55.036Z,16.17
2022-08-29T01:22:39.243Z,16.17
2022-08-29T01:25:12.289Z,16.14
2022-08-29T01:27:44.446Z,16.20
2022-08-29T01:30:15.097Z,16.14
2022-08-29T01:32:43.824Z,16.13
2022-08-29T01:35:12.205Z,16.11
2022-08-29T01:37:44.588Z,16.11
2022-08-29T01:40:14.805Z,16.10
2022-08-29T01:42:43.213Z,16.07
2022-08-29T01:45:11.981Z,16.10
2022-08-29T01:47:40.874Z,16.12
2022-08-29T01:50:12.719Z,16.07
2022-08-29T01:52:41.925Z,16.05
2022-08-29T01:55:10.332Z,16.12
2022-08-29T01:57:41.232Z,16.13
2022-08-29T02:00:11.788Z,16.10
2022-08-29T02:02:41.252Z,16.11
2022-08-29T02:05:10.638Z,16.12
2022-08-29T02:07:38.889Z,16.12
2022-08-29T02:10:08.044Z,16.10
2022-08-29T02:12:36.934Z,16.11
2022-08-29T02:15:08.295Z,16.05
2022-08-29T02:17:36.320Z,16.12
2022-08-29T02:20:09.091Z,16.10
2022-08-29T02:22:39.801Z,16.09
2022-08-29T02:25:23.797Z,16.10
2022-08-29T02:27:52.321Z,16.09
2022-08-29T02:30:22.111Z,16.08
2022-08-29T02:32:50.981Z,16.07
2022-08-29T02:35:19.496Z,16.06
2022-08-29T02:37:47.524Z,16.10
2022-08-29T02:40:15.762Z,16.08
2022-08-29T02:42:43.755Z,16.06
2022-08-29T02:45:12.345Z,16.01
2022-08-29T02:47:43.296Z,16.01
2022-08-29T02:50:12.583Z,16.01
2022-08-29T02:52:41.600Z,15.99
2022-08-29T02:55:13.369Z,15.92
2022-08-29T02:57:41.387Z,15.87
2022-08-29T03:00:13.133Z,15.80
2022-08-29T03:02:41.201Z,15.74
2022-08-29T03:05:11.536Z,15.69
2022-08-29T03:07:39.589Z,15.63
2022-08-29T03:10:07.879Z,15.58
2022-08-29T03:12:36.620Z,15.57
2022-08-29T03:15:04.858Z,15.51
2022-08-29T03:17:33.001Z,15.48
2022-08-29T03:20:01.278Z,15.44
2022-08-29T03:22:31.942Z,15.44
2022-08-29T03:25:02.002Z,15.41
2022-08-29T03:27:30.090Z,15.42
2022-08-29T03:29:58.368Z,15.43
2022-08-29T03:32:26.850Z,15.43
2022-08-29T03:34:55.834Z,15.42
2022-08-29T03:37:24.419Z,15.41
2022-08-29T03:39:55.820Z,15.39
2022-08-29T03:42:24.086Z,15.37
2022-08-29T03:44:52.137Z,15.42
2022-08-29T03:47:20.198Z,15.40
2022-08-29T03:49:48.277Z,15.41
2022-08-29T03:52:16.514Z,15.39
2022-08-29T03:54:44.550Z,15.42
2022-08-29T03:57:13.977Z,15.43
2022-08-29T03:59:42.941Z,15.44
2022-08-29T04:02:11.051Z,15.41
2022-08-29T04:04:57.257Z,15.36
2022-08-29T04:07:25.352Z,15.39
2022-08-29T04:09:53.347Z,15.31
2022-08-29T04:12:22.761Z,15.33
2022-08-29T04:14:50.793Z,15.33
2022-08-29T04:17:18.973Z,15.36
2022-08-29T04:19:46.983Z,15.35
2022-08-29T04:22:15.306Z,15.31
2022-08-29T04:24:43.358Z,15.32
2022-08-29T04:27:11.346Z,15.38
2022-08-29T04:29:40.829Z,15.34
2022-08-29T04:32:08.848Z,15.36
2022-08-29T04:34:37.494Z,15.39
2022-08-29T04:37:05.648Z,15.41
2022-08-29T04:39:33.636Z,15.42
2022-08-29T04:42:01.674Z,15.40
2022-08-29T04:44:29.764Z,15.43
2022-08-29T04:46:59.160Z,15.41
2022-08-29T04:49:27.254Z,15.44
2022-08-29T04:51:55.285Z,15.40
2022-08-29T04:54:23.420Z,15.40
2022-08-29T04:56:51.495Z,15.43
2022-08-29T04:59:25.324Z,15.46
2022-08-29T05:01:54.876Z,15.47
2022-08-29T05:04:24.905Z,15.48
2022-08-29T05:06:52.969Z,15.46
2022-08-29T05:09:22.110Z,15.50
2022-08-29T05:11:50.345Z,15.45
2022-08-29T05:14:19.028Z,15.43
2022-08-29T05:16:48.527Z,15.44
2022-08-29T05:19:17.037Z,15.48
2022-08-29T05:21:46.397Z,15.45
2022-08-29T05:24:17.532Z,15.53
2022-08-29T05:26:46.831Z,15.50
2022-08-29T05:29:15.085Z,15.57
2022-08-29T05:31:44.677Z,15.62
2022-08-29T05:34:34.296Z,15.71
2022-08-29T05:37:05.531Z,15.73
2022-08-29T05:39:34.153Z,15.74
2022-08-29T05:42:02.417Z,15.73
2022-08-29T05:44:35.312Z,15.80
2022-08-29T05:47:04.659Z,15.79
2022-08-29T05:49:32.905Z,15.72
2022-08-29T05:52:01.417Z,15.68
2022-08-29T05:54:34.393Z,15.69
2022-08-29T05:57:02.517Z,15.67
2022-08-29T05:59:30.537Z,15.73
2022-08-29T06:01:59.213Z,15.80
2022-08-29T06:04:27.267Z,15.76
2022-08-29T06:06:55.296Z,15.69
2022-08-29T06:09:23.472Z,15.67
2022-08-29T06:11:54.126Z,15.65
2022-08-29T06:14:22.152Z,15.74
2022-08-29T06:16:50.258Z,15.76
2022-08-29T06:19:18.402Z,15.76
2022-08-29T06:21:47.397Z,15.88
2022-08-29T06:24:16.366Z,15.97
2022-08-29T06:26:45.037Z,15.98
2022-08-29T06:29:16.043Z,15.88
2022-08-29T06:31:44.308Z,15.79
2022-08-29T06:34:12.333Z,15.70
2022-08-29T06:36:40.423Z,15.70
2022-08-29T06:39:11.454Z,15.68
2022-08-29T06:41:41.101Z,15.70
2022-08-29T06:44:10.443Z,15.70
2022-08-29T06:46:42.849Z,15.73
2022-08-29T06:49:12.899Z,15.77
2022-08-29T06:51:43.685Z,15.92
2022-08-29T06:54:13.157Z,16.02
2022-08-29T06:56:42.715Z,16.09
2022-08-29T06:59:11.337Z,16.03
2022-08-29T07:01:42.093Z,16.12
2022-08-29T07:04:14.429Z,16.24
2022-08-29T07:06:44.062Z,16.25
2022-08-29T07:09:12.728Z,16.27
2022-08-29T07:11:42.116Z,16.29
2022-08-29T07:14:10.674Z,16.28
2022-08-29T07:16:40.610Z,16.31
2022-08-29T07:19:10.139Z,16.32
2022-08-29T07:21:39.014Z,16.27
2022-08-29T07:24:08.582Z,16.36
2022-08-29T07:26:41.319Z,16.39
2022-08-29T07:29:12.564Z,16.38
2022-08-29T07:31:42.326Z,16.48
2022-08-29T07:34:10.401Z,16.50
2022-08-29T07:36:39.343Z,16.57
2022-08-29T07:39:09.694Z,16.41
2022-08-29T07:41:39.727Z,16.44
2022-08-29T07:44:08.922Z,16.54
2022-08-29T07:46:37.637Z,16.65
2022-08-29T07:49:07.674Z,16.71
2022-08-29T07:51:36.251Z,16.73
2022-08-29T07:54:05.134Z,16.68
2022-08-29T07:56:38.003Z,16.75
2022-08-29T07:59:07.185Z,16.79
2022-08-29T08:01:35.626Z,16.96
2022-08-29T08:04:04.504Z,17.06
2022-08-29T08:06:36.677Z,17.30
2022-08-29T08:09:05.661Z,17.44
2022-08-29T08:11:33.724Z,17.44
2022-08-29T08:14:02.033Z,17.65
2022-08-29T08:16:31.317Z,17.76
2022-08-29T08:18:59.460Z,17.97
2022-08-29T08:21:28.327Z,17.96
2022-08-29T08:23:57.741Z,18.01
2022-08-29T08:26:26.062Z,17.94
2022-08-29T08:28:55.217Z,17.98
2022-08-29T08:31:23.876Z,18.00
2022-08-29T08:33:52.963Z,18.13
2022-08-29T08:36:24.204Z,18.31
2022-08-29T08:38:54.594Z,18.33
2022-08-29T08:41:36.201Z,18.11
2022-08-29T08:44:07.486Z,18.10
2022-08-29T08:46:38.978Z,18.26
2022-08-29T08:49:13.748Z,18.21
2022-08-29T08:51:46.675Z,18.36
2022-08-29T08:54:22.125Z,18.40
2022-08-29T08:57:01.368Z,18.51
2022-08-29T08:59:39.442Z,18.77
2022-08-29T09:02:18.806Z,18.77
2022-08-29T09:04:59.786Z,18.72
2022-08-29T09:07:42.204Z,18.62
2022-08-29T09:10:21.368Z,18.57
2022-08-29T09:13:01.488Z,18.57
2022-08-29T09:15:35.009Z,18.50
2022-08-29T09:18:06.712Z,18.52
2022-08-29T09:20:37.896Z,18.69
2022-08-29T09:23:12.380Z,18.63
2022-08-29T09:25:40.433Z,18.74
2022-08-29T09:28:11.128Z,18.95
2022-08-29T09:30:42.398Z,19.21
2022-08-29T09:33:12.713Z,19.02
2022-08-29T09:35:43.170Z,19.01
2022-08-29T09:38:21.259Z,19.18
2022-08-29T09:40:54.375Z,19.11
2022-08-29T09:43:28.390Z,19.22
2022-08-29T09:46:23.272Z,19.21
2022-08-29T09:48:55.458Z,18.99
2022-08-29T09:51:28.300Z,19.07
2022-08-29T09:54:13.136Z,19.02
2022-08-29T09:56:49.289Z,18.95
2022-08-29T09:59:25.622Z,19.16
2022-08-29T10:02:25.335Z,19.14
2022-08-29T10:04:55.955Z,19.38
2022-08-29T10:07:26.381Z,19.46
2022-08-29T10:09:57.705Z,19.50
2022-08-29T10:12:34.730Z,19.53
2022-08-29T10:15:08.337Z,19.47
2022-08-29T10:17:59.682Z,19.63
2022-08-29T10:20:45.378Z,19.56
2022-08-29T10:23:24.627Z,19.65
2022-08-29T10:25:53.029Z,19.42
2022-08-29T10:28:32.951Z,19.15
2022-08-29T10:31:08.742Z,19.29
2022-08-29T10:33:56.737Z,19.15
2022-08-29T10:36:32.961Z,19.22
2022-08-29T10:39:12.346Z,19.33
2022-08-29T10:41:57.817Z,19.59
2022-08-29T10:44:32.878Z,19.74
2022-08-29T10:47:26.206Z,19.42
2022-08-29T10:50:21.765Z,19.50
2022-08-29T10:53:04.723Z,19.58
2022-08-29T10:55:55.636Z,19.40
2022-08-29T10:58:35.599Z,19.42
2022-08-29T11:01:12.467Z,19.27
2022-08-29T11:03:48.282Z,19.64
2022-08-29T11:06:22.674Z,19.64
2022-08-29T11:09:02.016Z,19.73
2022-08-29T11:11:32.116Z,20.05
2022-08-29T11:14:05.987Z,20.31
2022-08-29T11:16:40.686Z,20.37
2022-08-29T11:19:22.063Z,20.17
2022-08-29T11:21:56.639Z,20.15
2022-08-29T11:24:31.701Z,19.78
2022-08-29T11:27:09.800Z,19.87
2022-08-29T11:29:42.742Z,19.99
2022-08-29T11:32:17.445Z,19.85
2022-08-29T11:35:04.966Z,19.90
2022-08-29T11:38:00.796Z,19.90
2022-08-29T11:43:38.162Z,19.68
2022-08-29T11:46:08.510Z,19.41
2022-08-29T11:48:40.090Z,19.42
2022-08-29T11:51:37.395Z,19.29
2022-08-29T11:54:42.685Z,19.25
2022-08-29T11:57:51.111Z,19.33
2022-08-29T12:00:35.592Z,19.40
2022-08-29T12:03:15.096Z,19.47
2022-08-29T12:06:02.392Z,19.33
2022-08-29T12:08:40.737Z,19.57
2022-08-29T12:11:09.076Z,19.54
2022-08-29T12:14:04.652Z,19.36
2022-08-29T12:16:52.714Z,19.00
2022-08-29T12:19:47.640Z,19.08
2022-08-29T12:22:48.338Z,18.88
2022-08-29T12:25:45.942Z,18.75
2022-08-29T12:28:46.492Z,18.70
2022-08-29T12:31:51.333Z,18.61
2022-08-29T12:34:42.591Z,18.62
2022-08-29T12:37:32.797Z,18.62
2022-08-29T12:40:29.286Z,18.48
2022-08-29T12:43:16.639Z,18.47
2022-08-29T12:45:45.886Z,18.45
2022-08-29T12:48:20.616Z,18.55
2022-08-29T12:50:50.357Z,18.68
2022-08-29T12:53:23.301Z,18.82
2022-08-29T12:55:54.454Z,19.06
2022-08-29T12:58:40.481Z,19.33
2022-08-29T13:01:28.229Z,19.58
2022-08-29T13:04:01.061Z,19.94
2022-08-29T13:06:30.591Z,20.38
2022-08-29T13:08:59.203Z,20.63
2022-08-29T13:11:29.884Z,20.25
2022-08-29T13:14:13.169Z,19.74
2022-08-29T13:16:41.641Z,19.64
2022-08-29T13:19:20.170Z,19.24
2022-08-29T13:21:48.331Z,19.09
2022-08-29T13:24:19.352Z,19.00
2022-08-29T13:27:04.179Z,19.06
2022-08-29T13:29:39.130Z,19.05
2022-08-29T13:32:23.780Z,19.15
2022-08-29T13:35:03.680Z,19.32
2022-08-29T13:37:34.236Z,19.51
2022-08-29T13:40:31.288Z,19.73
2022-08-29T13:43:02.045Z,19.57
2022-08-29T13:45:31.832Z,19.53
2022-08-29T13:48:14.468Z,19.53
2022-08-29T13:50:42.607Z,19.59
2022-08-29T13:53:10.676Z,19.81
2022-08-29T13:55:38.773Z,19.54
2022-08-29T13:58:06.864Z,19.70
2022-08-29T14:00:36.254Z,19.64
2022-08-29T14:03:09.245Z,19.89
2022-08-29T14:05:38.209Z,20.26
2022-08-29T14:08:07.099Z,20.28
2022-08-29T14:10:35.234Z,20.34
2022-08-29T14:13:03.582Z,20.17
2022-08-29T14:15:31.892Z,20.40
2022-08-29T14:18:01.489Z,20.70
2022-08-29T14:20:29.502Z,20.35
2022-08-29T14:22:57.513Z,20.52
2022-08-29T14:25:25.593Z,20.46
2022-08-29T14:27:54.916Z,20.54
2022-08-29T14:30:24.739Z,21.33
2022-08-29T14:32:53.362Z,21.31
2022-08-29T14:35:26.182Z,21.48
2022-08-29T14:37:56.048Z,21.22
2022-08-29T14:40:25.665Z,21.40
2022-08-29T14:42:53.911Z,22.17
2022-08-29T14:45:22.082Z,22.17
2022-08-29T14:47:50.137Z,23.64
2022-08-29T14:50:18.415Z,23.23
2022-08-29T14:52:47.834Z,22.45
2022-08-29T14:55:16.773Z,22.57
2022-08-29T14:57:44.898Z,22.40
2022-08-29T15:00:16.841Z,22.42
2022-08-29T15:02:47.082Z,22.35
2022-08-29T15:05:15.572Z,21.56
2022-08-29T15:07:44.430Z,20.64
2022-08-29T15:10:16.812Z,20.08
2022-08-29T15:12:44.891Z,20.01
2022-08-29T15:15:13.495Z,19.56
2022-08-29T15:17:43.635Z,19.83
2022-08-29T15:23:02.081Z,19.66
2022-08-29T15:25:31.488Z,19.90
2022-08-29T15:27:59.565Z,20.05
2022-08-29T15:30:27.645Z,20.00
2022-08-29T15:32:55.737Z,20.36
2022-08-29T15:35:23.870Z,20.15
2022-08-29T15:37:54.347Z,20.30
2022-08-29T15:40:23.293Z,20.47
2022-08-29T15:42:52.710Z,20.47
2022-08-29T15:45:22.638Z,20.53
2022-08-29T15:47:53.858Z,20.51
2022-08-29T15:50:24.222Z,20.34
2022-08-29T15:52:52.677Z,20.63
2022-08-29T15:55:21.696Z,20.73
2022-08-29T15:57:52.517Z,20.47
2022-08-29T16:00:30.705Z,20.57
2022-08-29T16:03:01.617Z,20.22
2022-08-29T16:05:30.335Z,20.01
2022-08-29T16:07:59.238Z,19.68
2022-08-29T16:10:27.465Z,19.40
2022-08-29T16:12:55.503Z,19.13
2022-08-29T16:15:25.446Z,19.19
2022-08-29T16:17:53.670Z,19.20
2022-08-29T16:20:22.043Z,19.14
2022-08-29T16:22:50.087Z,19.13
2022-08-29T16:25:18.342Z,18.94
2022-08-29T16:27:46.385Z,18.84
2022-08-29T16:30:16.202Z,18.53
2022-08-29T16:32:45.686Z,18.60
2022-08-29T16:35:15.764Z,18.63
2022-08-29T16:37:43.925Z,18.77
2022-08-29T16:40:14.565Z,18.71
2022-08-29T16:42:43.048Z,18.84
2022-08-29T16:45:23.844Z,19.02
2022-08-29T16:47:57.449Z,18.92
2022-08-29T16:50:26.498Z,18.97
2022-08-29T16:52:54.903Z,19.02
2022-08-29T16:55:23.390Z,18.70
2022-08-29T16:58:05.332Z,18.74
2022-08-29T17:00:33.538Z,18.59
2022-08-29T17:03:03.076Z,18.48
2022-08-29T17:05:31.150Z,18.45
2022-08-29T17:07:58.116Z,18.32
2022-08-29T17:10:25.192Z,18.31
2022-08-29T17:12:52.178Z,18.34
2022-08-29T17:15:19.347Z,18.26
2022-08-29T17:17:47.928Z,18.23
2022-08-29T17:20:17.341Z,18.22
2022-08-29T17:22:45.382Z,18.11
2022-08-29T17:25:13.695Z,18.10
2022-08-29T17:28:01.049Z,17.99
2022-08-29T17:30:30.540Z,17.93
2022-08-29T17:32:58.682Z,17.85
2022-08-29T17:35:28.348Z,17.81
2022-08-29T17:37:56.451Z,17.77
2022-08-29T17:40:25.316Z,17.79
2022-08-29T17:42:54.613Z,17.70
2022-08-29T17:45:22.891Z,17.66
2022-08-29T17:47:50.945Z,17.73
2022-08-29T17:50:19.764Z,17.73
2022-08-29T17:52:49.320Z,17.75
2022-08-29T17:55:17.447Z,17.71
2022-08-29T17:57:45.627Z,17.74
2022-08-29T18:00:14.358Z,17.77
2022-08-29T18:02:42.479Z,17.71
2022-08-29T18:05:12.617Z,17.70
2022-08-29T18:07:40.783Z,17.73
2022-08-29T18:10:13.994Z,17.75
2022-08-29T18:12:42.164Z,17.65
2022-08-29T18:15:12.097Z,17.51
2022-08-29T18:17:40.894Z,17.50
2022-08-29T18:20:11.610Z,17.46
2022-08-29T18:22:40.675Z,17.35
2022-08-29T18:25:11.416Z,17.40
2022-08-29T18:27:43.651Z,17.38
2022-08-29T18:30:14.079Z,17.38
2022-08-29T18:32:42.517Z,17.39
2022-08-29T18:35:11.353Z,17.39
2022-08-29T18:37:39.649Z,17.31
2022-08-29T18:40:10.851Z,17.36
2022-08-29T18:42:41.436Z,17.29
2022-08-29T18:45:11.013Z,17.31
2022-08-29T18:47:39.281Z,17.30
2022-08-29T18:50:25.520Z,17.30
2022-08-29T18:52:55.109Z,17.32
2022-08-29T18:55:25.058Z,17.31
2022-08-29T18:57:53.507Z,17.39
2022-08-29T19:00:21.841Z,17.26
2022-08-29T19:02:50.033Z,17.16
2022-08-29T19:05:18.878Z,17.12
2022-08-29T19:07:46.915Z,16.99
2022-08-29T19:10:15.375Z,16.86
2022-08-29T19:12:46.729Z,16.74
2022-08-29T19:15:16.058Z,16.77
2022-08-29T19:17:44.159Z,16.69
2022-08-29T19:20:33.550Z,16.62
2022-08-29T19:23:01.642Z,16.55
2022-08-29T19:25:30.098Z,16.44
2022-08-29T19:27:59.657Z,16.30
2022-08-29T19:30:28.720Z,16.33
2022-08-29T19:32:56.753Z,16.34
2022-08-29T19:35:25.457Z,16.22
2022-08-29T19:37:54.145Z,16.24
2022-08-29T19:40:24.167Z,16.12
2022-08-29T19:42:54.036Z,16.14
2022-08-29T19:45:23.596Z,16.06
2022-08-29T19:47:52.166Z,16.04
2022-08-29T19:50:24.731Z,15.87
2022-08-29T19:52:54.393Z,15.85
2022-08-29T19:55:24.745Z,15.78
2022-08-29T19:57:53.094Z,15.77
2022-08-29T20:00:25.478Z,15.70
2022-08-29T20:02:53.976Z,15.67
2022-08-29T20:05:22.343Z,15.64
2022-08-29T20:07:51.240Z,15.63
2022-08-29T20:10:22.839Z,15.69
2022-08-29T20:12:51.861Z,15.60
2022-08-29T20:15:22.777Z,15.56
2022-08-29T20:18:01.371Z,15.58
2022-08-29T20:20:34.535Z,15.55
2022-08-29T20:23:02.979Z,15.61
2022-08-29T20:25:32.438Z,15.61
2022-08-29T20:28:01.051Z,15.67
2022-08-29T20:30:33.012Z,15.63
2022-08-29T20:33:02.754Z,15.70
2022-08-29T20:35:48.224Z,15.78
2022-08-29T20:38:16.631Z,15.85
2022-08-29T20:40:46.899Z,15.88
2022-08-29T20:43:15.625Z,15.86
2022-08-29T20:45:43.934Z,15.80
2022-08-29T20:48:13.889Z,15.84
2022-08-29T20:50:42.060Z,15.84
2022-08-29T20:53:12.830Z,15.78
2022-08-29T20:55:59.240Z,15.69
2022-08-29T20:58:29.021Z,15.75
2022-08-29T21:00:57.245Z,15.67
2022-08-29T21:03:44.694Z,15.62
2022-08-29T21:06:14.032Z,15.65
2022-08-29T21:08:42.256Z,15.62
2022-08-29T21:11:14.518Z,15.69
2022-08-29T21:13:43.401Z,15.77
2022-08-29T21:16:12.076Z,15.73
2022-08-29T21:18:42.006Z,15.68
2022-08-29T21:21:13.348Z,15.64
2022-08-29T21:23:41.467Z,15.61
2022-08-29T21:26:09.788Z,15.70
2022-08-29T21:28:38.313Z,15.74
2022-08-29T21:31:09.944Z,15.64
2022-08-29T21:33:39.046Z,15.68
2022-08-29T21:36:12.743Z,15.66
2022-08-29T21:38:40.849Z,15.64
2022-08-29T21:41:09.970Z,15.64
2022-08-29T21:43:38.371Z,15.58
2022-08-29T21:46:15.139Z,15.57
2022-08-29T21:48:43.335Z,15.66
2022-08-29T21:51:14.031Z,15.55
2022-08-29T21:53:42.160Z,15.51
2022-08-29T21:56:10.193Z,15.40
2022-08-29T21:58:38.205Z,15.34
2022-08-29T22:01:09.269Z,15.35
2022-08-29T22:03:37.354Z,15.31
2022-08-29T22:06:07.038Z,15.20
2022-08-29T22:08:37.796Z,15.13
2022-08-29T22:11:12.754Z,15.23
2022-08-29T22:13:41.237Z,15.17
2022-08-29T22:16:27.448Z,15.23
2022-08-29T22:18:56.465Z,15.15
2022-08-29T22:21:27.433Z,15.12
2022-08-29T22:23:57.261Z,15.16
2022-08-29T22:26:25.552Z,15.07
2022-08-29T22:28:53.750Z,15.12
2022-08-29T22:31:21.929Z,15.10
2022-08-29T22:33:50.350Z,15.12
2022-08-29T22:36:19.628Z,15.13
2022-08-29T22:38:53.548Z,15.13
2022-08-29T22:41:26.231Z,15.03
2022-08-29T22:44:31.670Z,15.08
2022-08-29T22:46:44.997Z,14.97
2022-08-29T22:49:13.354Z,15.03
2022-08-29T22:51:41.435Z,15.04
2022-08-29T22:54:27.065Z,15.05
2022-08-29T22:56:56.590Z,15.13
2022-08-29T22:59:24.699Z,15.07
2022-08-29T23:01:52.796Z,15.12
2022-08-29T23:04:21.314Z,15.11
2022-08-29T23:06:49.322Z,15.09
2022-08-29T23:09:17.729Z,14.92
2022-08-29T23:11:45.802Z,15.03
2022-08-29T23:14:15.471Z,15.03
2022-08-29T23:16:48.878Z,14.99
2022-08-29T23:19:17.062Z,14.87
2022-08-29T23:21:45.356Z,14.87
2022-08-29T23:24:14.146Z,14.89
2022-08-29T23:26:42.831Z,14.87
2022-08-29T23:29:11.136Z,14.86
2022-08-29T23:31:40.536Z,14.89
2022-08-29T23:34:08.694Z,14.90
2022-08-29T23:36:37.614Z,14.88
2022-08-29T23:39:06.860Z,14.84
2022-08-29T23:41:36.028Z,14.84
2022-08-29T23:44:04.711Z,14.88
2022-08-29T23:46:32.755Z,14.70
2022-08-29T23:49:02.193Z,14.80
2022-08-29T23:51:30.675Z,14.67
2022-08-29T23:53:58.794Z,14.73
2022-08-29T23:56:27.453Z,14.65
2022-08-29T23:58:56.226Z,14.70
